createdAt,value
2022-12-15T00:00:34.787Z,88.46
2022-12-15T00:05:34.672Z,87.94
2022-12-15T00:10:34.705Z,88.15
2022-12-15T00:15:34.683Z,88.26
2022-12-15T00:20:34.586Z,88.04
2022-12-15T00:25:34.452Z,87.62
2022-12-15T00:30:34.405Z,87.84
2022-12-15T00:35:34.395Z,87.13
2022-12-15T00:40:34.334Z,86.43
2022-12-15T00:45:34.283Z,88.40
2022-12-15T00:50:34.200Z,87.24
2022-12-15T00:55:34.263Z,87.28
2022-12-15T01:00:34.157Z,86.85
2022-12-15T01:05:34.141Z,86.85
2022-12-15T01:10:34.041Z,87.28
2022-12-15T01:15:33.944Z,86.85
2022-12-15T01:20:33.882Z,87.07
2022-12-15T01:25:33.863Z,87.00
2022-12-15T01:30:33.789Z,87.32
2022-12-15T01:35:33.776Z,86.58
2022-12-15T01:40:33.675Z,86.68
2022-12-15T01:45:33.616Z,86.58
2022-12-15T01:50:33.594Z,86.09
2022-12-15T01:55:33.538Z,86.30
2022-12-15T02:00:33.502Z,85.98
2022-12-15T02:05:33.411Z,86.93
2022-12-15T02:10:33.391Z,86.93
2022-12-15T02:15:34.346Z,87.15
2022-12-15T02:20:35.321Z,86.41
2022-12-15T02:25:34.327Z,86.79
2022-12-15T02:30:34.268Z,86.83
2022-12-15T02:35:33.106Z,86.36
2022-12-15T02:40:36.486Z,86.41
2022-12-15T02:45:33.154Z,86.41
2022-12-15T02:50:32.933Z,86.41
2022-12-15T02:55:32.908Z,86.93
2022-12-15T03:00:33.036Z,86.72
2022-12-15T03:05:32.758Z,86.61
2022-12-15T03:10:32.726Z,86.83
2022-12-15T03:15:35.585Z,86.90
2022-12-15T03:20:32.613Z,86.51
2022-12-15T03:25:32.569Z,86.68
2022-12-15T03:30:33.746Z,86.36
2022-12-15T03:35:32.547Z,86.72
2022-12-15T03:40:32.386Z,86.79
2022-12-15T03:45:32.469Z,86.68
2022-12-15T03:50:32.314Z,87.10
2022-12-15T03:55:32.379Z,87.49
2022-12-15T04:00:32.202Z,86.90
2022-12-15T04:05:32.140Z,86.58
2022-12-15T04:10:34.603Z,86.90
2022-12-15T04:15:32.069Z,86.61
2022-12-15T04:20:31.971Z,87.53
2022-12-15T04:25:31.959Z,87.10
2022-12-15T04:30:32.139Z,87.32
2022-12-15T04:35:32.033Z,86.83
2022-12-15T04:40:31.764Z,86.83
2022-12-15T04:45:31.752Z,87.15
2022-12-15T04:50:31.677Z,86.93
2022-12-15T04:55:31.608Z,87.00
2022-12-15T05:00:31.591Z,87.32
2022-12-15T05:05:31.522Z,87.10
2022-12-15T05:10:31.443Z,86.68
2022-12-15T05:15:31.441Z,86.58
2022-12-15T05:20:31.368Z,86.79
2022-12-15T05:25:31.295Z,86.83
2022-12-15T05:30:31.277Z,86.61
2022-12-15T05:35:31.221Z,86.83
2022-12-15T05:40:31.333Z,86.72
2022-12-15T05:45:31.111Z,87.04
2022-12-15T05:50:31.190Z,86.68
2022-12-15T05:55:31.156Z,87.10
2022-12-15T06:00:31.093Z,87.15
2022-12-15T06:05:30.910Z,86.83
2022-12-15T06:10:30.851Z,87.04
2022-12-15T06:15:30.921Z,86.90
2022-12-15T06:20:30.753Z,86.90
2022-12-15T06:25:30.691Z,86.68
2022-12-15T06:30:30.603Z,86.26
2022-12-15T06:35:30.553Z,86.47
2022-12-15T06:40:36.275Z,85.88
2022-12-15T06:45:31.489Z,85.98
2022-12-15T06:50:32.542Z,86.44
2022-12-15T06:55:30.360Z,86.55
2022-12-15T07:00:30.292Z,86.76
2022-12-15T07:05:31.405Z,86.98
2022-12-15T07:10:33.818Z,86.51
2022-12-15T07:15:30.162Z,86.51
2022-12-15T07:20:30.218Z,86.93
2022-12-15T07:25:30.070Z,86.55
2022-12-15T07:30:35.132Z,86.55
2022-12-15T07:35:31.078Z,86.98
2022-12-15T07:40:30.131Z,86.55
2022-12-15T07:45:30.071Z,86.76
2022-12-15T07:50:29.853Z,86.55
2022-12-15T07:55:57.149Z,86.13
2022-12-15T08:00:30.781Z,86.23
2022-12-15T08:05:29.680Z,86.09
2022-12-15T08:10:29.581Z,86.51
2022-12-15T08:15:29.542Z,86.51
2022-12-15T08:20:29.665Z,86.41
2022-12-15T08:25:31.656Z,85.88
2022-12-15T08:30:29.426Z,86.09
2022-12-15T08:35:55.046Z,85.88
2022-12-15T08:40:30.237Z,85.77
2022-12-15T08:45:29.262Z,85.84
2022-12-15T08:50:29.249Z,85.10
2022-12-15T08:55:29.207Z,85.63
2022-12-15T09:00:29.141Z,86.47
2022-12-15T09:05:29.048Z,86.01
2022-12-15T09:10:28.947Z,86.43
2022-12-15T09:15:59.794Z,86.08
2022-12-15T09:20:29.825Z,85.66
2022-12-15T09:25:29.851Z,86.71
2022-12-15T09:30:28.952Z,87.09
2022-12-15T09:35:28.802Z,87.30
2022-12-15T09:40:30.939Z,87.27
2022-12-15T09:45:29.727Z,87.54
2022-12-15T09:50:28.552Z,87.71
2022-12-15T09:55:28.520Z,87.29
2022-12-15T10:00:28.488Z,87.74
2022-12-15T10:05:50.048Z,88.02
2022-12-15T10:10:29.343Z,86.93
2022-12-15T10:15:28.448Z,87.27
2022-12-15T10:20:28.184Z,87.12
2022-12-15T10:30:29.353Z,85.99
2022-12-15T10:35:28.029Z,85.99
2022-12-15T10:40:27.978Z,86.06
2022-12-15T10:45:27.942Z,85.42
2022-12-15T10:50:27.879Z,85.81
2022-12-15T10:55:27.933Z,85.71
2022-12-15T11:00:29.910Z,85.81
2022-12-15T11:05:27.706Z,85.56
2022-12-15T11:10:27.847Z,85.46
2022-12-15T11:15:27.627Z,85.63
2022-12-15T11:20:27.657Z,85.31
2022-12-15T11:25:27.600Z,85.63
2022-12-15T11:30:27.440Z,85.59
2022-12-15T11:35:27.409Z,85.02
2022-12-15T11:40:27.430Z,84.71
2022-12-15T11:45:27.441Z,84.81
2022-12-15T11:50:28.296Z,84.56
2022-12-15T11:55:33.153Z,84.15
2022-12-15T12:00:29.268Z,84.36
2022-12-15T12:05:27.221Z,83.83
2022-12-15T12:10:27.009Z,83.98
2022-12-15T12:15:27.007Z,84.15
2022-12-15T12:20:26.936Z,84.15
2022-12-15T12:25:26.954Z,83.52
2022-12-15T12:30:26.901Z,83.00
2022-12-15T12:35:31.052Z,82.58
2022-12-15T12:40:27.727Z,81.92
2022-12-15T12:45:26.670Z,82.12
2022-12-15T12:50:26.589Z,82.47
2022-12-15T12:55:26.575Z,82.89
2022-12-15T13:00:26.550Z,83.00
2022-12-15T13:05:26.456Z,82.79
2022-12-15T13:10:26.410Z,82.43
2022-12-15T13:15:26.369Z,81.81
2022-12-15T13:20:26.279Z,81.60
2022-12-15T13:25:26.218Z,81.39
2022-12-15T13:30:26.177Z,81.18
2022-12-15T13:35:26.115Z,81.29
2022-12-15T13:40:26.034Z,81.22
2022-12-15T13:45:26.083Z,81.70
2022-12-15T13:50:26.000Z,81.81
2022-12-15T14:00:26.816Z,82.79
2022-12-15T14:05:25.805Z,82.06
2022-12-15T14:10:27.652Z,82.26
2022-12-15T14:15:25.830Z,82.47
2022-12-15T14:20:25.681Z,83.21
2022-12-15T14:25:25.762Z,83.00
2022-12-15T14:30:25.661Z,83.56
2022-12-15T14:35:25.713Z,83.73
2022-12-15T14:40:28.908Z,82.79
2022-12-15T14:45:25.607Z,83.14
2022-12-15T14:50:25.454Z,84.08
2022-12-15T14:55:25.241Z,84.29
2022-12-15T15:00:25.413Z,84.22
2022-12-15T15:03:09.545Z,86.98
2022-12-15T15:05:25.472Z,84.75
2022-12-15T15:10:25.278Z,85.27
2022-12-15T15:15:25.127Z,83.59
2022-12-15T15:20:25.094Z,84.89
2022-12-15T15:25:24.956Z,84.12
2022-12-15T15:31:59.837Z,83.11
2022-12-15T15:36:59.911Z,84.51
2022-12-15T15:41:59.780Z,84.76
2022-12-15T15:46:59.768Z,84.48
2022-12-15T15:51:59.633Z,84.31
2022-12-15T15:56:59.727Z,85.68
2022-12-15T16:01:59.860Z,87.36
2022-12-15T16:06:59.501Z,86.69
2022-12-15T16:12:00.715Z,86.58
2022-12-15T16:16:59.393Z,85.89
2022-12-15T16:21:59.356Z,85.72
2022-12-15T16:26:59.277Z,86.13
2022-12-15T16:32:22.685Z,85.75
2022-12-15T16:36:59.292Z,86.63
2022-12-15T16:41:59.240Z,87.54
2022-12-15T16:46:59.392Z,87.05
2022-12-15T16:52:00.297Z,86.57
2022-12-15T16:56:59.146Z,86.88
2022-12-15T17:01:59.237Z,87.41
2022-12-15T17:06:59.115Z,87.76
2022-12-15T17:11:59.113Z,88.35
2022-12-15T17:16:58.842Z,87.62
2022-12-15T17:21:58.912Z,87.45
2022-12-15T17:26:59.720Z,87.13
2022-12-15T17:31:58.813Z,86.96
2022-12-15T17:36:58.827Z,87.49
2022-12-15T17:47:41.728Z,87.11
2022-12-15T17:52:41.981Z,87.11
2022-12-15T18:39:16.733Z,87.88
2022-12-15T18:43:36.272Z,87.61
2022-12-15T18:48:36.267Z,87.19
2022-12-15T18:53:36.359Z,88.13
2022-12-15T18:58:36.117Z,87.23
2022-12-15T19:03:36.687Z,87.05
2022-12-15T19:08:36.075Z,87.27
2022-12-15T19:13:36.256Z,87.69
2022-12-15T19:18:35.848Z,87.69
2022-12-15T19:23:36.107Z,87.05
2022-12-15T19:28:35.800Z,87.20
2022-12-15T19:33:35.913Z,87.30
2022-12-15T19:38:35.698Z,87.41
2022-12-15T19:43:36.134Z,87.20
2022-12-15T19:48:35.663Z,87.13
2022-12-15T19:53:36.055Z,87.34
2022-12-15T19:58:35.485Z,86.96
2022-12-15T20:03:36.090Z,86.75
2022-12-15T20:08:35.451Z,87.60
2022-12-15T20:13:35.968Z,87.07
2022-12-15T20:18:35.737Z,86.65
2022-12-15T20:23:35.531Z,86.90
2022-12-15T20:28:35.245Z,86.47
2022-12-15T20:33:35.622Z,86.68
2022-12-15T20:38:35.131Z,86.68
2022-12-15T20:43:35.760Z,87.32
2022-12-15T20:48:35.046Z,87.60
2022-12-15T20:53:35.135Z,86.47
2022-12-15T20:58:38.701Z,86.19
2022-12-15T21:03:35.300Z,86.41
2022-12-15T21:08:34.762Z,86.51
2022-12-15T21:13:35.225Z,86.61
2022-12-15T21:28:35.720Z,86.23
2022-12-15T21:33:34.628Z,86.44
2022-12-15T21:38:35.057Z,86.44
2022-12-15T21:43:34.457Z,86.23
2022-12-15T21:48:35.004Z,86.44
2022-12-15T21:53:34.282Z,85.81
2022-12-15T21:58:34.491Z,85.53
2022-12-15T22:03:34.148Z,85.96
2022-12-15T22:08:34.902Z,86.55
2022-12-15T22:13:34.155Z,86.02
2022-12-15T22:18:34.853Z,86.13
2022-12-15T22:23:34.087Z,86.06
2022-12-15T22:28:34.591Z,85.96
2022-12-15T22:33:34.074Z,85.96
2022-12-15T23:02:10.772Z,84.86
2022-12-15T23:07:10.627Z,85.11
2022-12-15T23:12:10.629Z,85.18
2022-12-15T23:17:10.570Z,84.91
2022-12-15T23:22:10.486Z,85.22
2022-12-15T23:27:10.442Z,85.75
2022-12-15T23:32:10.449Z,85.33
2022-12-15T23:37:10.376Z,85.11
2022-12-15T23:42:10.378Z,85.33
2022-12-15T23:47:10.322Z,85.64
2022-12-15T23:52:10.307Z,85.82
2022-12-15T23:57:10.117Z,85.43
